sensor_id;sensor_type;location;lat;lon;timestamp;P1;durP1;ratioP1;P2;durP2;ratioP2
70560;SDS011;58109;53.570;10.084;2023-07-20T00:00:10;299.63;;;75.13;;
70560;SDS011;58109;53.570;10.084;2023-07-20T00:02:39;234.10;;;58.57;;
70560;SDS011;58109;53.570;10.084;2023-07-20T00:05:10;263.50;;;66.50;;
70560;SDS011;58109;53.570;10.084;2023-07-20T00:07:36;260.57;;;61.97;;
70560;SDS011;58109;53.570;10.084;2023-07-20T00:10:04;162.67;;;45.37;;
70560;SDS011;58109;53.570;10.084;2023-07-20T00:12:29;189.83;;;49.70;;
70560;SDS011;58109;53.570;10.084;2023-07-20T00:14:55;199.50;;;50.90;;
70560;SDS011;58109;53.570;10.084;2023-07-20T00:17:20;181.47;;;48.97;;
70560;SDS011;58109;53.570;10.084;2023-07-20T00:19:46;166.03;;;46.00;;
70560;SDS011;58109;53.570;10.084;2023-07-20T00:22:11;151.03;;;43.53;;
70560;SDS011;58109;53.570;10.084;2023-07-20T00:24:38;132.13;;;39.77;;
70560;SDS011;58109;53.570;10.084;2023-07-20T00:27:03;127.20;;;39.47;;
70560;SDS011;58109;53.570;10.084;2023-07-20T00:29:29;151.23;;;42.93;;
70560;SDS011;58109;53.570;10.084;2023-07-20T00:31:54;146.53;;;42.70;;
70560;SDS011;58109;53.570;10.084;2023-07-20T00:34:24;178.27;;;46.73;;
70560;SDS011;58109;53.570;10.084;2023-07-20T00:36:51;166.27;;;46.00;;
70560;SDS011;58109;53.570;10.084;2023-07-20T00:39:17;144.73;;;43.20;;
70560;SDS011;58109;53.570;10.084;2023-07-20T00:41:45;166.07;;;45.87;;
70560;SDS011;58109;53.570;10.084;2023-07-20T00:44:10;132.50;;;39.87;;
70560;SDS011;58109;53.570;10.084;2023-07-20T00:46:36;138.53;;;40.83;;
70560;SDS011;58109;53.570;10.084;2023-07-20T00:49:03;151.50;;;42.70;;
70560;SDS011;58109;53.570;10.084;2023-07-20T00:51:29;138.00;;;40.73;;
70560;SDS011;58109;53.570;10.084;2023-07-20T00:53:57;165.60;;;44.97;;
70560;SDS011;58109;53.570;10.084;2023-07-20T00:56:28;152.43;;;43.97;;
70560;SDS011;58109;53.570;10.084;2023-07-20T00:58:55;152.57;;;42.90;;
70560;SDS011;58109;53.570;10.084;2023-07-20T01:01:21;172.67;;;46.57;;
70560;SDS011;58109;53.570;10.084;2023-07-20T01:03:49;207.50;;;53.47;;
70560;SDS011;58109;53.570;10.084;2023-07-20T01:08:57;164.87;;;46.33;;
70560;SDS011;58109;53.570;10.084;2023-07-20T01:14:19;169.07;;;44.70;;
70560;SDS011;58109;53.570;10.084;2023-07-20T01:16:45;272.33;;;68.47;;
70560;SDS011;58109;53.570;10.084;2023-07-20T01:19:13;250.37;;;59.47;;
70560;SDS011;58109;53.570;10.084;2023-07-20T01:33:08;253.60;;;55.20;;
70560;SDS011;58109;53.570;10.084;2023-07-20T01:35:34;219.17;;;50.93;;
70560;SDS011;58109;53.570;10.084;2023-07-20T01:38:04;213.23;;;51.23;;
70560;SDS011;58109;53.570;10.084;2023-07-20T01:40:29;217.53;;;52.20;;
70560;SDS011;58109;53.570;10.084;2023-07-20T01:42:55;278.03;;;62.53;;
70560;SDS011;58109;53.570;10.084;2023-07-20T01:45:21;258.80;;;58.63;;
70560;SDS011;58109;53.570;10.084;2023-07-20T01:47:46;345.20;;;79.57;;
70560;SDS011;58109;53.570;10.084;2023-07-20T01:50:14;403.13;;;88.30;;
70560;SDS011;58109;53.570;10.084;2023-07-20T01:52:39;308.80;;;71.07;;
70560;SDS011;58109;53.570;10.084;2023-07-20T01:55:05;351.00;;;85.17;;
70560;SDS011;58109;53.570;10.084;2023-07-20T01:57:30;372.80;;;91.20;;
70560;SDS011;58109;53.570;10.084;2023-07-20T01:59:59;346.70;;;83.17;;
70560;SDS011;58109;53.570;10.084;2023-07-20T02:02:26;283.53;;;66.93;;
70560;SDS011;58109;53.570;10.084;2023-07-20T02:04:54;274.30;;;64.30;;
70560;SDS011;58109;53.570;10.084;2023-07-20T02:07:19;335.73;;;81.50;;
70560;SDS011;58109;53.570;10.084;2023-07-20T02:09:47;506.93;;;127.93;;
70560;SDS011;58109;53.570;10.084;2023-07-20T02:12:15;264.07;;;62.17;;
70560;SDS011;58109;53.570;10.084;2023-07-20T02:14:41;200.40;;;50.30;;
70560;SDS011;58109;53.570;10.084;2023-07-20T02:17:07;176.77;;;48.27;;
70560;SDS011;58109;53.570;10.084;2023-07-20T02:19:34;192.73;;;50.27;;
70560;SDS011;58109;53.570;10.084;2023-07-20T02:22:02;234.57;;;56.37;;
70560;SDS011;58109;53.570;10.084;2023-07-20T02:24:32;220.60;;;53.57;;
70560;SDS011;58109;53.570;10.084;2023-07-20T02:27:00;243.10;;;56.13;;
70560;SDS011;58109;53.570;10.084;2023-07-20T02:29:25;244.13;;;55.97;;
70560;SDS011;58109;53.570;10.084;2023-07-20T02:31:51;292.23;;;65.80;;
70560;SDS011;58109;53.570;10.084;2023-07-20T02:34:16;272.43;;;62.90;;
70560;SDS011;58109;53.570;10.084;2023-07-20T02:36:42;266.77;;;61.70;;
70560;SDS011;58109;53.570;10.084;2023-07-20T02:39:07;260.43;;;61.80;;
70560;SDS011;58109;53.570;10.084;2023-07-20T02:41:38;258.27;;;59.07;;
70560;SDS011;58109;53.570;10.084;2023-07-20T02:44:03;208.97;;;52.60;;
70560;SDS011;58109;53.570;10.084;2023-07-20T02:46:31;230.47;;;54.80;;
70560;SDS011;58109;53.570;10.084;2023-07-20T02:49:00;232.70;;;54.53;;
70560;SDS011;58109;53.570;10.084;2023-07-20T02:51:29;254.87;;;58.10;;
70560;SDS011;58109;53.570;10.084;2023-07-20T02:53:56;262.23;;;59.93;;
70560;SDS011;58109;53.570;10.084;2023-07-20T02:56:24;230.73;;;54.70;;
70560;SDS011;58109;53.570;10.084;2023-07-20T02:58:50;267.23;;;61.77;;
70560;SDS011;58109;53.570;10.084;2023-07-20T03:01:18;263.47;;;58.07;;
70560;SDS011;58109;53.570;10.084;2023-07-20T03:03:46;258.77;;;57.73;;
70560;SDS011;58109;53.570;10.084;2023-07-20T03:06:18;264.23;;;61.23;;
70560;SDS011;58109;53.570;10.084;2023-07-20T03:08:43;261.17;;;61.67;;
70560;SDS011;58109;53.570;10.084;2023-07-20T03:11:16;245.47;;;58.50;;
70560;SDS011;58109;53.570;10.084;2023-07-20T03:13:45;282.93;;;65.70;;
70560;SDS011;58109;53.570;10.084;2023-07-20T03:16:13;294.40;;;70.17;;
70560;SDS011;58109;53.570;10.084;2023-07-20T03:18:44;376.13;;;89.80;;
70560;SDS011;58109;53.570;10.084;2023-07-20T03:21:10;374.73;;;89.93;;
70560;SDS011;58109;53.570;10.084;2023-07-20T03:23:39;353.50;;;83.03;;
70560;SDS011;58109;53.570;10.084;2023-07-20T03:26:05;279.90;;;65.50;;
70560;SDS011;58109;53.570;10.084;2023-07-20T03:28:33;351.30;;;79.53;;
70560;SDS011;58109;53.570;10.084;2023-07-20T03:31:02;315.67;;;70.13;;
70560;SDS011;58109;53.570;10.084;2023-07-20T03:33:31;299.90;;;65.80;;
70560;SDS011;58109;53.570;10.084;2023-07-20T03:36:01;369.87;;;81.97;;
70560;SDS011;58109;53.570;10.084;2023-07-20T03:38:32;389.93;;;89.13;;
70560;SDS011;58109;53.570;10.084;2023-07-20T03:41:02;320.83;;;72.77;;
70560;SDS011;58109;53.570;10.084;2023-07-20T03:43:32;380.37;;;85.60;;
70560;SDS011;58109;53.570;10.084;2023-07-20T03:45:57;432.40;;;99.07;;
70560;SDS011;58109;53.570;10.084;2023-07-20T03:48:23;376.80;;;86.63;;
70560;SDS011;58109;53.570;10.084;2023-07-20T03:50:50;436.37;;;99.53;;
70560;SDS011;58109;53.570;10.084;2023-07-20T03:53:19;415.20;;;100.33;;
70560;SDS011;58109;53.570;10.084;2023-07-20T03:55:47;323.10;;;74.47;;
70560;SDS011;58109;53.570;10.084;2023-07-20T03:58:14;632.37;;;161.27;;
70560;SDS011;58109;53.570;10.084;2023-07-20T04:00:49;312.90;;;78.47;;
70560;SDS011;58109;53.570;10.084;2023-07-20T04:03:15;284.80;;;62.70;;
70560;SDS011;58109;53.570;10.084;2023-07-20T04:05:41;199.87;;;49.60;;
70560;SDS011;58109;53.570;10.084;2023-07-20T04:08:10;227.20;;;53.43;;
70560;SDS011;58109;53.570;10.084;2023-07-20T04:10:38;346.07;;;80.07;;
70560;SDS011;58109;53.570;10.084;2023-07-20T04:13:04;384.80;;;92.27;;
70560;SDS011;58109;53.570;10.084;2023-07-20T04:15:30;488.50;;;112.43;;
70560;SDS011;58109;53.570;10.084;2023-07-20T04:17:58;641.90;;;157.67;;
70560;SDS011;58109;53.570;10.084;2023-07-20T04:20:26;669.63;;;164.43;;
70560;SDS011;58109;53.570;10.084;2023-07-20T04:22:56;446.73;;;101.53;;
70560;SDS011;58109;53.570;10.084;2023-07-20T04:25:22;614.47;;;150.30;;
70560;SDS011;58109;53.570;10.084;2023-07-20T04:27:50;505.00;;;112.80;;
70560;SDS011;58109;53.570;10.084;2023-07-20T04:30:18;787.97;;;187.67;;
70560;SDS011;58109;53.570;10.084;2023-07-20T04:32:49;443.40;;;99.43;;
70560;SDS011;58109;53.570;10.084;2023-07-20T04:35:18;406.57;;;86.23;;
70560;SDS011;58109;53.570;10.084;2023-07-20T04:37:50;265.13;;;58.30;;
70560;SDS011;58109;53.570;10.084;2023-07-20T04:40:20;221.83;;;53.67;;
70560;SDS011;58109;53.570;10.084;2023-07-20T04:42:45;260.13;;;60.13;;
70560;SDS011;58109;53.570;10.084;2023-07-20T04:45:11;219.87;;;54.27;;
70560;SDS011;58109;53.570;10.084;2023-07-20T04:47:42;325.47;;;74.93;;
70560;SDS011;58109;53.570;10.084;2023-07-20T04:50:07;224.13;;;55.07;;
70560;SDS011;58109;53.570;10.084;2023-07-20T04:52:40;290.50;;;65.60;;
70560;SDS011;58109;53.570;10.084;2023-07-20T04:55:08;370.23;;;84.93;;
70560;SDS011;58109;53.570;10.084;2023-07-20T04:57:36;439.10;;;103.37;;
70560;SDS011;58109;53.570;10.084;2023-07-20T05:00:01;401.10;;;94.40;;
70560;SDS011;58109;53.570;10.084;2023-07-20T05:02:28;434.53;;;99.40;;
70560;SDS011;58109;53.570;10.084;2023-07-20T05:04:53;443.00;;;102.93;;
70560;SDS011;58109;53.570;10.084;2023-07-20T05:07:21;424.50;;;100.73;;
70560;SDS011;58109;53.570;10.084;2023-07-20T05:09:46;386.23;;;88.03;;
70560;SDS011;58109;53.570;10.084;2023-07-20T05:12:14;399.13;;;92.70;;
70560;SDS011;58109;53.570;10.084;2023-07-20T05:14:39;540.17;;;124.23;;
70560;SDS011;58109;53.570;10.084;2023-07-20T05:17:07;341.47;;;78.57;;
70560;SDS011;58109;53.570;10.084;2023-07-20T05:19:32;372.57;;;89.17;;
70560;SDS011;58109;53.570;10.084;2023-07-20T05:22:00;255.20;;;59.23;;
70560;SDS011;58109;53.570;10.084;2023-07-20T05:24:30;229.83;;;55.33;;
70560;SDS011;58109;53.570;10.084;2023-07-20T05:26:55;260.80;;;60.17;;
70560;SDS011;58109;53.570;10.084;2023-07-20T05:29:23;217.63;;;54.70;;
70560;SDS011;58109;53.570;10.084;2023-07-20T05:31:49;292.47;;;71.07;;
70560;SDS011;58109;53.570;10.084;2023-07-20T05:34:17;296.87;;;72.87;;
70560;SDS011;58109;53.570;10.084;2023-07-20T05:36:46;348.87;;;87.43;;
70560;SDS011;58109;53.570;10.084;2023-07-20T05:39:13;314.37;;;76.23;;
70560;SDS011;58109;53.570;10.084;2023-07-20T05:41:41;363.17;;;90.07;;
70560;SDS011;58109;53.570;10.084;2023-07-20T05:44:07;371.90;;;95.53;;
70560;SDS011;58109;53.570;10.084;2023-07-20T05:46:34;405.60;;;103.03;;
70560;SDS011;58109;53.570;10.084;2023-07-20T05:49:02;372.03;;;93.30;;
70560;SDS011;58109;53.570;10.084;2023-07-20T05:51:28;410.70;;;103.73;;
70560;SDS011;58109;53.570;10.084;2023-07-20T05:53:56;318.47;;;78.37;;
70560;SDS011;58109;53.570;10.084;2023-07-20T05:56:21;721.70;;;182.10;;
70560;SDS011;58109;53.570;10.084;2023-07-20T05:58:48;736.87;;;184.50;;
70560;SDS011;58109;53.570;10.084;2023-07-20T06:01:16;820.27;;;210.10;;
70560;SDS011;58109;53.570;10.084;2023-07-20T06:03:46;1185.47;;;324.47;;
70560;SDS011;58109;53.570;10.084;2023-07-20T06:06:14;1097.83;;;280.10;;
70560;SDS011;58109;53.570;10.084;2023-07-20T06:08:40;1270.80;;;331.23;;
70560;SDS011;58109;53.570;10.084;2023-07-20T06:11:05;822.57;;;204.87;;
70560;SDS011;58109;53.570;10.084;2023-07-20T06:13:33;679.07;;;167.77;;
70560;SDS011;58109;53.570;10.084;2023-07-20T06:16:01;771.23;;;190.03;;
70560;SDS011;58109;53.570;10.084;2023-07-20T06:18:28;1005.13;;;264.23;;
70560;SDS011;58109;53.570;10.084;2023-07-20T06:20:55;1053.03;;;285.37;;
70560;SDS011;58109;53.570;10.084;2023-07-20T06:23:23;668.13;;;164.63;;
70560;SDS011;58109;53.570;10.084;2023-07-20T06:25:51;592.43;;;146.93;;
70560;SDS011;58109;53.570;10.084;2023-07-20T06:28:19;566.63;;;134.83;;
70560;SDS011;58109;53.570;10.084;2023-07-20T06:30:44;565.07;;;136.33;;
70560;SDS011;58109;53.570;10.084;2023-07-20T06:33:15;615.57;;;148.53;;
70560;SDS011;58109;53.570;10.084;2023-07-20T06:35:43;544.77;;;133.00;;
70560;SDS011;58109;53.570;10.084;2023-07-20T06:38:11;582.50;;;145.17;;
70560;SDS011;58109;53.570;10.084;2023-07-20T06:40:39;580.13;;;141.77;;
70560;SDS011;58109;53.570;10.084;2023-07-20T06:43:04;1057.47;;;281.17;;
70560;SDS011;58109;53.570;10.084;2023-07-20T06:45:30;844.20;;;217.93;;
70560;SDS011;58109;53.570;10.084;2023-07-20T06:47:55;775.73;;;196.27;;
70560;SDS011;58109;53.570;10.084;2023-07-20T06:50:20;843.87;;;216.77;;
70560;SDS011;58109;53.570;10.084;2023-07-20T06:52:46;809.87;;;207.27;;
70560;SDS011;58109;53.570;10.084;2023-07-20T06:55:12;913.23;;;227.53;;
70560;SDS011;58109;53.570;10.084;2023-07-20T06:57:38;938.27;;;236.93;;
70560;SDS011;58109;53.570;10.084;2023-07-20T07:00:04;776.23;;;200.13;;
70560;SDS011;58109;53.570;10.084;2023-07-20T07:02:31;823.80;;;211.33;;
70560;SDS011;58109;53.570;10.084;2023-07-20T07:04:56;760.07;;;192.73;;
70560;SDS011;58109;53.570;10.084;2023-07-20T07:07:22;807.50;;;201.53;;
70560;SDS011;58109;53.570;10.084;2023-07-20T07:09:47;882.83;;;215.60;;
70560;SDS011;58109;53.570;10.084;2023-07-20T07:12:15;848.60;;;205.93;;
70560;SDS011;58109;53.570;10.084;2023-07-20T07:14:41;818.37;;;198.37;;
70560;SDS011;58109;53.570;10.084;2023-07-20T07:17:06;676.87;;;166.20;;
70560;SDS011;58109;53.570;10.084;2023-07-20T07:19:37;624.33;;;154.23;;
70560;SDS011;58109;53.570;10.084;2023-07-20T07:22:03;661.87;;;162.63;;
70560;SDS011;58109;53.570;10.084;2023-07-20T07:24:29;700.17;;;177.30;;
70560;SDS011;58109;53.570;10.084;2023-07-20T07:26:59;730.47;;;182.73;;
70560;SDS011;58109;53.570;10.084;2023-07-20T07:32:48;857.10;;;208.73;;
70560;SDS011;58109;53.570;10.084;2023-07-20T07:35:13;1015.67;;;256.83;;
70560;SDS011;58109;53.570;10.084;2023-07-20T07:37:43;736.73;;;181.73;;
70560;SDS011;58109;53.570;10.084;2023-07-20T07:40:09;469.50;;;122.73;;
70560;SDS011;58109;53.570;10.084;2023-07-20T07:42:35;623.10;;;153.70;;
70560;SDS011;58109;53.570;10.084;2023-07-20T07:45:01;846.87;;;226.47;;
70560;SDS011;58109;53.570;10.084;2023-07-20T07:47:33;651.07;;;164.03;;
70560;SDS011;58109;53.570;10.084;2023-07-20T07:49:59;511.40;;;125.53;;
70560;SDS011;58109;53.570;10.084;2023-07-20T07:52:24;552.60;;;135.90;;
70560;SDS011;58109;53.570;10.084;2023-07-20T07:54:50;610.03;;;151.97;;
70560;SDS011;58109;53.570;10.084;2023-07-20T07:57:18;714.37;;;177.43;;
70560;SDS011;58109;53.570;10.084;2023-07-20T07:59:46;500.93;;;119.63;;
70560;SDS011;58109;53.570;10.084;2023-07-20T08:02:11;362.33;;;89.77;;
70560;SDS011;58109;53.570;10.084;2023-07-20T08:04:39;395.77;;;93.80;;
70560;SDS011;58109;53.570;10.084;2023-07-20T08:07:12;497.33;;;115.80;;
70560;SDS011;58109;53.570;10.084;2023-07-20T08:09:37;586.03;;;154.00;;
70560;SDS011;58109;53.570;10.084;2023-07-20T08:12:03;373.10;;;97.93;;
70560;SDS011;58109;53.570;10.084;2023-07-20T08:14:29;381.60;;;102.67;;
70560;SDS011;58109;53.570;10.084;2023-07-20T08:16:54;411.77;;;110.87;;
70560;SDS011;58109;53.570;10.084;2023-07-20T08:19:20;505.13;;;124.83;;
70560;SDS011;58109;53.570;10.084;2023-07-20T08:21:46;517.60;;;123.43;;
70560;SDS011;58109;53.570;10.084;2023-07-20T08:24:11;527.47;;;130.00;;
70560;SDS011;58109;53.570;10.084;2023-07-20T08:26:39;799.03;;;213.13;;
70560;SDS011;58109;53.570;10.084;2023-07-20T08:29:04;710.13;;;188.20;;
70560;SDS011;58109;53.570;10.084;2023-07-20T08:31:30;938.87;;;239.73;;
70560;SDS011;58109;53.570;10.084;2023-07-20T08:33:55;671.13;;;166.13;;
70560;SDS011;58109;53.570;10.084;2023-07-20T08:36:22;385.80;;;103.97;;
70560;SDS011;58109;53.570;10.084;2023-07-20T08:38:52;363.27;;;99.20;;
70560;SDS011;58109;53.570;10.084;2023-07-20T08:41:17;366.43;;;99.47;;
70560;SDS011;58109;53.570;10.084;2023-07-20T08:43:43;378.20;;;101.87;;
70560;SDS011;58109;53.570;10.084;2023-07-20T08:46:10;511.30;;;139.33;;
70560;SDS011;58109;53.570;10.084;2023-07-20T08:48:40;315.97;;;90.43;;
70560;SDS011;58109;53.570;10.084;2023-07-20T08:51:09;453.83;;;119.87;;
70560;SDS011;58109;53.570;10.084;2023-07-20T08:53:37;559.23;;;153.63;;
70560;SDS011;58109;53.570;10.084;2023-07-20T08:56:03;596.43;;;153.63;;
70560;SDS011;58109;53.570;10.084;2023-07-20T08:58:32;291.67;;;69.83;;
70560;SDS011;58109;53.570;10.084;2023-07-20T09:01:00;309.30;;;69.70;;
70560;SDS011;58109;53.570;10.084;2023-07-20T09:03:26;326.90;;;72.33;;
70560;SDS011;58109;53.570;10.084;2023-07-20T09:05:51;310.07;;;79.37;;
70560;SDS011;58109;53.570;10.084;2023-07-20T09:08:19;345.27;;;83.37;;
70560;SDS011;58109;53.570;10.084;2023-07-20T09:10:44;325.03;;;85.27;;
70560;SDS011;58109;53.570;10.084;2023-07-20T09:13:13;368.93;;;100.27;;
70560;SDS011;58109;53.570;10.084;2023-07-20T09:15:39;297.17;;;82.57;;
70560;SDS011;58109;53.570;10.084;2023-07-20T09:18:11;319.40;;;86.83;;
70560;SDS011;58109;53.570;10.084;2023-07-20T09:20:36;299.63;;;82.00;;
70560;SDS011;58109;53.570;10.084;2023-07-20T09:23:04;338.33;;;90.10;;
70560;SDS011;58109;53.570;10.084;2023-07-20T09:25:32;356.93;;;94.27;;
70560;SDS011;58109;53.570;10.084;2023-07-20T09:28:01;314.67;;;85.73;;
70560;SDS011;58109;53.570;10.084;2023-07-20T09:30:32;331.17;;;91.90;;
70560;SDS011;58109;53.570;10.084;2023-07-20T09:33:00;342.13;;;94.83;;
70560;SDS011;58109;53.570;10.084;2023-07-20T09:35:25;304.63;;;88.73;;
70560;SDS011;58109;53.570;10.084;2023-07-20T09:40:21;373.17;;;93.30;;
70560;SDS011;58109;53.570;10.084;2023-07-20T09:42:49;432.10;;;106.53;;
70560;SDS011;58109;53.570;10.084;2023-07-20T09:45:29;396.17;;;100.40;;
70560;SDS011;58109;53.570;10.084;2023-07-20T09:48:03;359.87;;;92.57;;
70560;SDS011;58109;53.570;10.084;2023-07-20T09:50:41;430.03;;;112.47;;
70560;SDS011;58109;53.570;10.084;2023-07-20T09:53:07;396.90;;;104.77;;
70560;SDS011;58109;53.570;10.084;2023-07-20T09:55:40;417.00;;;109.23;;
70560;SDS011;58109;53.570;10.084;2023-07-20T09:58:11;419.10;;;112.60;;
70560;SDS011;58109;53.570;10.084;2023-07-20T10:00:42;454.70;;;120.67;;
70560;SDS011;58109;53.570;10.084;2023-07-20T10:03:16;544.53;;;144.63;;
70560;SDS011;58109;53.570;10.084;2023-07-20T10:05:47;586.77;;;155.57;;
70560;SDS011;58109;53.570;10.084;2023-07-20T10:08:20;574.07;;;152.40;;
70560;SDS011;58109;53.570;10.084;2023-07-20T10:10:46;480.33;;;129.33;;
70560;SDS011;58109;53.570;10.084;2023-07-20T10:13:18;393.20;;;107.30;;
70560;SDS011;58109;53.570;10.084;2023-07-20T10:15:48;394.83;;;104.23;;
70560;SDS011;58109;53.570;10.084;2023-07-20T10:18:25;394.43;;;108.53;;
70560;SDS011;58109;53.570;10.084;2023-07-20T10:20:56;599.83;;;158.57;;
70560;SDS011;58109;53.570;10.084;2023-07-20T10:23:27;585.57;;;153.13;;
70560;SDS011;58109;53.570;10.084;2023-07-20T10:25:57;541.87;;;145.17;;
70560;SDS011;58109;53.570;10.084;2023-07-20T10:28:22;536.63;;;144.87;;
70560;SDS011;58109;53.570;10.084;2023-07-20T10:30:50;741.47;;;200.13;;
70560;SDS011;58109;53.570;10.084;2023-07-20T10:33:16;1193.53;;;312.53;;
70560;SDS011;58109;53.570;10.084;2023-07-20T10:36:02;989.87;;;271.70;;
70560;SDS011;58109;53.570;10.084;2023-07-20T10:43:49;603.47;;;160.40;;
70560;SDS011;58109;53.570;10.084;2023-07-20T10:46:25;927.67;;;250.37;;
70560;SDS011;58109;53.570;10.084;2023-07-20T10:48:59;843.50;;;228.10;;
70560;SDS011;58109;53.570;10.084;2023-07-20T10:51:28;691.40;;;184.63;;
70560;SDS011;58109;53.570;10.084;2023-07-20T10:53:57;740.23;;;197.07;;
70560;SDS011;58109;53.570;10.084;2023-07-20T10:56:25;829.03;;;217.97;;
70560;SDS011;58109;53.570;10.084;2023-07-20T10:59:00;706.17;;;187.23;;
70560;SDS011;58109;53.570;10.084;2023-07-20T11:01:29;545.93;;;145.77;;
70560;SDS011;58109;53.570;10.084;2023-07-20T11:03:58;712.87;;;189.57;;
70560;SDS011;58109;53.570;10.084;2023-07-20T11:12:08;788.97;;;206.67;;
70560;SDS011;58109;53.570;10.084;2023-07-20T11:14:43;826.90;;;220.60;;
70560;SDS011;58109;53.570;10.084;2023-07-20T11:17:18;842.33;;;227.53;;
70560;SDS011;58109;53.570;10.084;2023-07-20T11:19:47;837.90;;;226.00;;
70560;SDS011;58109;53.570;10.084;2023-07-20T11:22:17;931.20;;;243.87;;
70560;SDS011;58109;53.570;10.084;2023-07-20T11:24:42;681.10;;;177.40;;
70560;SDS011;58109;53.570;10.084;2023-07-20T11:27:08;499.17;;;131.33;;
70560;SDS011;58109;53.570;10.084;2023-07-20T11:29:34;432.97;;;116.17;;
70560;SDS011;58109;53.570;10.084;2023-07-20T11:32:00;477.20;;;125.80;;
70560;SDS011;58109;53.570;10.084;2023-07-20T11:34:30;527.40;;;141.97;;
70560;SDS011;58109;53.570;10.084;2023-07-20T11:36:58;552.27;;;149.97;;
70560;SDS011;58109;53.570;10.084;2023-07-20T11:39:27;634.53;;;169.97;;
70560;SDS011;58109;53.570;10.084;2023-07-20T11:41:54;691.40;;;185.17;;
70560;SDS011;58109;53.570;10.084;2023-07-20T11:44:21;650.77;;;172.63;;
70560;SDS011;58109;53.570;10.084;2023-07-20T11:46:59;431.20;;;118.20;;
70560;SDS011;58109;53.570;10.084;2023-07-20T11:49:30;504.50;;;135.57;;
70560;SDS011;58109;53.570;10.084;2023-07-20T11:52:02;546.40;;;149.03;;
70560;SDS011;58109;53.570;10.084;2023-07-20T11:54:29;458.77;;;124.43;;
70560;SDS011;58109;53.570;10.084;2023-07-20T11:56:54;475.47;;;130.33;;
70560;SDS011;58109;53.570;10.084;2023-07-20T11:59:27;455.63;;;123.43;;
70560;SDS011;58109;53.570;10.084;2023-07-20T12:01:56;473.60;;;128.67;;
70560;SDS011;58109;53.570;10.084;2023-07-20T12:04:26;477.80;;;130.20;;
70560;SDS011;58109;53.570;10.084;2023-07-20T12:06:53;453.87;;;123.50;;
70560;SDS011;58109;53.570;10.084;2023-07-20T12:09:19;469.57;;;128.03;;
70560;SDS011;58109;53.570;10.084;2023-07-20T12:11:48;484.97;;;132.50;;
70560;SDS011;58109;53.570;10.084;2023-07-20T12:14:14;460.73;;;125.67;;
70560;SDS011;58109;53.570;10.084;2023-07-20T12:16:42;507.90;;;141.07;;
70560;SDS011;58109;53.570;10.084;2023-07-20T12:19:17;474.60;;;130.13;;
70560;SDS011;58109;53.570;10.084;2023-07-20T12:21:42;495.23;;;136.20;;
70560;SDS011;58109;53.570;10.084;2023-07-20T12:24:08;535.70;;;148.47;;
70560;SDS011;58109;53.570;10.084;2023-07-20T12:26:37;559.90;;;155.47;;
70560;SDS011;58109;53.570;10.084;2023-07-20T12:29:05;560.87;;;155.20;;
70560;SDS011;58109;53.570;10.084;2023-07-20T12:31:33;565.83;;;158.33;;
70560;SDS011;58109;53.570;10.084;2023-07-20T12:34:04;628.37;;;171.90;;
70560;SDS011;58109;53.570;10.084;2023-07-20T12:36:33;498.93;;;136.77;;
70560;SDS011;58109;53.570;10.084;2023-07-20T12:38:59;520.23;;;141.27;;
70560;SDS011;58109;53.570;10.084;2023-07-20T12:41:31;527.73;;;144.50;;
70560;SDS011;58109;53.570;10.084;2023-07-20T12:44:01;546.20;;;148.40;;
70560;SDS011;58109;53.570;10.084;2023-07-20T12:46:27;495.77;;;135.87;;
70560;SDS011;58109;53.570;10.084;2023-07-20T12:49:00;495.73;;;137.17;;
70560;SDS011;58109;53.570;10.084;2023-07-20T12:51:25;552.60;;;151.43;;
70560;SDS011;58109;53.570;10.084;2023-07-20T12:53:53;569.43;;;155.03;;
70560;SDS011;58109;53.570;10.084;2023-07-20T12:56:18;568.20;;;155.17;;
70560;SDS011;58109;53.570;10.084;2023-07-20T12:58:46;557.07;;;152.93;;
70560;SDS011;58109;53.570;10.084;2023-07-20T13:01:14;534.13;;;146.47;;
70560;SDS011;58109;53.570;10.084;2023-07-20T13:03:40;491.13;;;134.17;;
70560;SDS011;58109;53.570;10.084;2023-07-20T13:06:06;504.23;;;138.87;;
70560;SDS011;58109;53.570;10.084;2023-07-20T13:08:31;513.53;;;141.37;;
70560;SDS011;58109;53.570;10.084;2023-07-20T13:10:59;546.53;;;149.77;;
70560;SDS011;58109;53.570;10.084;2023-07-20T13:13:28;475.03;;;129.60;;
70560;SDS011;58109;53.570;10.084;2023-07-20T13:15:55;511.20;;;140.87;;
70560;SDS011;58109;53.570;10.084;2023-07-20T13:18:21;534.13;;;148.13;;
70560;SDS011;58109;53.570;10.084;2023-07-20T13:20:46;553.00;;;152.17;;
70560;SDS011;58109;53.570;10.084;2023-07-20T13:23:17;537.00;;;147.60;;
70560;SDS011;58109;53.570;10.084;2023-07-20T13:25:42;517.10;;;142.53;;
70560;SDS011;58109;53.570;10.084;2023-07-20T13:28:07;505.17;;;138.87;;
70560;SDS011;58109;53.570;10.084;2023-07-20T13:30:33;541.93;;;149.57;;
70560;SDS011;58109;53.570;10.084;2023-07-20T13:33:01;627.33;;;173.60;;
70560;SDS011;58109;53.570;10.084;2023-07-20T13:35:26;579.40;;;161.47;;
70560;SDS011;58109;53.570;10.084;2023-07-20T13:37:52;648.07;;;180.57;;
70560;SDS011;58109;53.570;10.084;2023-07-20T13:40:17;929.73;;;259.23;;
70560;SDS011;58109;53.570;10.084;2023-07-20T13:42:47;1289.83;;;347.13;;
70560;SDS011;58109;53.570;10.084;2023-07-20T13:45:13;794.33;;;219.40;;
70560;SDS011;58109;53.570;10.084;2023-07-20T13:47:40;645.90;;;177.97;;
70560;SDS011;58109;53.570;10.084;2023-07-20T13:50:06;673.60;;;184.13;;
70560;SDS011;58109;53.570;10.084;2023-07-20T13:52:32;596.97;;;165.30;;
70560;SDS011;58109;53.570;10.084;2023-07-20T13:54:57;588.00;;;160.67;;
70560;SDS011;58109;53.570;10.084;2023-07-20T13:57:25;1310.63;;;352.73;;
70560;SDS011;58109;53.570;10.084;2023-07-20T13:59:53;703.03;;;194.20;;
70560;SDS011;58109;53.570;10.084;2023-07-20T14:02:21;890.50;;;248.60;;
70560;SDS011;58109;53.570;10.084;2023-07-20T14:04:47;586.27;;;162.53;;
70560;SDS011;58109;53.570;10.084;2023-07-20T14:07:19;562.27;;;155.77;;
70560;SDS011;58109;53.570;10.084;2023-07-20T14:09:45;648.73;;;179.47;;
70560;SDS011;58109;53.570;10.084;2023-07-20T14:12:10;575.07;;;159.27;;
70560;SDS011;58109;53.570;10.084;2023-07-20T14:14:39;760.77;;;210.80;;
70560;SDS011;58109;53.570;10.084;2023-07-20T14:17:06;538.67;;;147.43;;
70560;SDS011;58109;53.570;10.084;2023-07-20T14:19:32;532.47;;;145.47;;
70560;SDS011;58109;53.570;10.084;2023-07-20T14:21:57;560.50;;;152.80;;
70560;SDS011;58109;53.570;10.084;2023-07-20T14:24:27;691.77;;;191.40;;